Terminal Aerodrome Forecast
Issued by NWS

Home | Current Version | Previous Version | Text Only | Print | Product List | Glossary On
Versions: 1 2 3 4 5 6 7 8 9 10 11 12 13 14 15
000
FTAK31 PAJN 070300 AAB
TAFAGY
TAF AMD
PAGY 070307Z 0703/0724 26012KT P6SM SKC
     FM070600 VRB03KT P6SM SKC
     FM071700 22010KT P6SM SCT150
     FM072200 21014G22KT P6SM SCT100
      AMD LTD TO CLD VIS AND WIND=

USA.gov is the U.S. government's official web portal to all federal, state and local government web resources and services.